TimeAST,TemperatureF,Dew PointF,Humidity,Sea Level PressureIn,VisibilityMPH,Wind Direction,Wind SpeedMPH,Gust SpeedMPH,PrecipitationIn,Events,Conditions,WindDirDegrees,DateUTC
12:00 AM,82.4,75.2,79,29.95,-9999.0,North,6.9,-,N/A,,Clear,350,2013-10-19 21:00:00
12:30 AM,82.4,69.8,66,29.95,-9999.0,NNW,8.1,-,N/A,,Clear,340,2013-10-19 21:30:00
1:00 AM,80.6,71.6,74,29.92,-9999.0,North,5.8,-,N/A,,Clear,350,2013-10-19 22:00:00
1:30 AM,82.4,69.8,66,29.92,-9999.0,North,6.9,-,N/A,,Clear,360,2013-10-19 22:30:00
2:00 AM,84.2,69.8,62,29.92,-9999.0,North,8.1,-,N/A,,Clear,350,2013-10-19 23:00:00
2:30 AM,82.4,71.6,70,29.92,-9999.0,North,6.9,-,N/A,,Clear,360,2013-10-19 23:30:00
3:00 AM,82,73,69,29.94,7,North,6.9,,,,,350,2013-10-20 00:00:00
3:00 AM,82.4,73.4,74,29.92,-9999.0,North,6.9,-,N/A,,Clear,350,2013-10-20 00:00:00
3:30 AM,80.6,73.4,79,29.92,-9999.0,North,5.8,-,N/A,,Clear,350,2013-10-20 00:30:00
4:00 AM,80.6,69.8,70,29.95,-9999.0,SSW,5.8,-,N/A,,Clear,210,2013-10-20 01:00:00
4:30 AM,77.0,64.4,65,29.95,-9999.0,SW,4.6,-,N/A,,Clear,230,2013-10-20 01:30:00
5:00 AM,77.0,64.4,65,29.95,-9999.0,SW,4.6,-,N/A,,Clear,230,2013-10-20 02:00:00
5:30 AM,78.8,64.4,61,29.95,-9999.0,SW,4.6,-,N/A,,Clear,230,2013-10-20 02:30:00
6:00 AM,78.8,62.6,57,29.95,5.6,WSW,4.6,-,N/A,,Unknown,250,2013-10-20 03:00:00
6:30 AM,80.6,62.6,54,29.95,-9999.0,WSW,4.6,-,N/A,,Clear,250,2013-10-20 03:30:00
7:00 AM,82.4,62.6,51,29.98,-9999.0,WSW,4.6,-,N/A,,Clear,240,2013-10-20 04:00:00
7:30 AM,84.2,62.6,48,29.98,-9999.0,WSW,4.6,-,N/A,,Clear,240,2013-10-20 04:30:00
8:00 AM,86.0,62.6,45,29.98,-9999.0,WSW,4.6,-,N/A,,Clear,250,2013-10-20 05:00:00
9:00 AM,91,63,29,30.00,5,WSW,3.5,,,,Smoke,240,2013-10-20 06:00:00
9:00 AM,91.4,62.6,38,29.98,5.0,WSW,3.5,-,N/A,,Unknown,240,2013-10-20 06:00:00
10:00 AM,96.8,62.6,32,29.98,5.0,WSW,3.5,-,N/A,,Unknown,240,2013-10-20 07:00:00
10:30 AM,98.6,53.6,22,29.98,5.0,NE,3.5,-,N/A,,Unknown,40,2013-10-20 07:30:00
11:00 AM,98.6,44.6,16,29.98,5.0,North,4.6,-,N/A,,Unknown,350,2013-10-20 08:00:00
12:00 PM,98.6,41.0,14,29.95,-9999.0,North,5.8,-,N/A,,Clear,10,2013-10-20 09:00:00
12:30 PM,100.4,39.2,12,29.92,-9999.0,North,6.9,-,N/A,,Clear,360,2013-10-20 09:30:00
1:00 PM,100.4,41.0,13,29.92,-9999.0,North,8.1,-,N/A,,Clear,10,2013-10-20 10:00:00
2:00 PM,98.6,35.6,11,29.92,-9999.0,NNE,8.1,-,N/A,,Clear,30,2013-10-20 11:00:00
2:30 PM,98.6,37.4,12,29.89,-9999.0,North,8.1,-,N/A,,Clear,10,2013-10-20 11:30:00
3:00 PM,98,38,6,29.91,9,NE,6.9,,,,,50,2013-10-20 12:00:00
3:00 PM,98.6,37.4,12,29.89,-9999.0,NE,6.9,-,N/A,,Clear,50,2013-10-20 12:00:00
3:30 PM,96.8,44.6,17,29.92,-9999.0,NNE,15.0,-,N/A,,Clear,20,2013-10-20 12:30:00
4:00 PM,91.4,55.4,29,29.92,-9999.0,NNE,11.5,-,N/A,,Clear,20,2013-10-20 13:00:00
4:30 PM,89.6,64.4,43,29.92,-9999.0,NNE,10.4,-,N/A,,Clear,20,2013-10-20 13:30:00
5:00 PM,87.8,69.8,55,29.92,-9999.0,North,11.5,-,N/A,,Clear,10,2013-10-20 14:00:00
5:30 PM,87.8,69.8,55,29.92,-9999.0,North,10.4,-,N/A,,Clear,10,2013-10-20 14:30:00
6:00 PM,86.0,73.4,66,29.92,-9999.0,North,8.1,-,N/A,,Clear,10,2013-10-20 15:00:00
6:30 PM,86.0,69.8,58,29.92,-9999.0,North,9.2,-,N/A,,Clear,360,2013-10-20 15:30:00
7:00 PM,86.0,69.8,58,29.95,-9999.0,North,5.8,-,N/A,,Clear,350,2013-10-20 16:00:00
7:30 PM,86.0,71.6,62,29.95,-9999.0,North,6.9,-,N/A,,Clear,350,2013-10-20 16:30:00
8:00 PM,86.0,69.8,58,29.95,-9999.0,North,6.9,-,N/A,,Clear,360,2013-10-20 17:00:00
8:30 PM,86.0,60.8,43,29.95,-9999.0,NNW,6.9,-,N/A,,Clear,330,2013-10-20 17:30:00
9:00 PM,87,59,28,29.95,7,NW,4.6,,,,,310,2013-10-20 18:00:00
9:00 PM,87.8,59.0,38,29.95,-9999.0,NW,4.6,-,N/A,,Clear,310,2013-10-20 18:00:00
9:30 PM,87.8,57.2,35,29.95,-9999.0,WNW,4.6,-,N/A,,Clear,300,2013-10-20 18:30:00
10:00 PM,86.0,57.2,37,29.95,-9999.0,NW,3.5,-,N/A,,Clear,320,2013-10-20 19:00:00
11:00 PM,86.0,57.2,37,29.92,-9999.0,WNW,4.6,-,N/A,,Clear,300,2013-10-20 20:00:00